createdAt,value
2019-04-06T00:02:11.184Z,88.28
2019-04-06T00:04:38.544Z,88.19
2019-04-06T00:07:05.911Z,88.57
2019-04-06T00:09:33.211Z,88.87
2019-04-06T00:12:00.267Z,89.18
2019-04-06T00:14:29.203Z,89.57
2019-04-06T00:16:56.529Z,89.76
2019-04-06T00:19:23.564Z,90.11
2019-04-06T00:21:50.862Z,90.17
2019-04-06T00:24:17.902Z,90.04
2019-04-06T00:26:45.198Z,90.00
2019-04-06T00:29:12.228Z,89.70
2019-04-06T00:31:39.277Z,89.58
2019-04-06T00:34:07.725Z,89.51
2019-04-06T00:36:35.026Z,89.42
2019-04-06T00:39:02.417Z,89.35
2019-04-06T00:41:30.542Z,89.35
2019-04-06T00:43:57.845Z,89.30
2019-04-06T00:46:24.883Z,89.37
2019-04-06T00:48:51.939Z,89.46
2019-04-06T00:51:19.363Z,89.60
2019-04-06T00:53:47.679Z,89.69
2019-04-06T00:56:14.722Z,89.79
2019-04-06T00:58:41.768Z,89.95
2019-04-06T01:01:08.800Z,89.84
2019-04-06T01:03:35.970Z,90.01
2019-04-06T01:06:03.238Z,89.75
2019-04-06T01:08:30.963Z,89.56
2019-04-06T01:10:58.010Z,89.53
2019-04-06T01:13:25.064Z,89.47
2019-04-06T01:15:52.378Z,89.61
2019-04-06T01:18:19.423Z,89.92
2019-04-06T01:20:47.678Z,89.95
2019-04-06T01:23:14.989Z,89.90
2019-04-06T01:25:42.276Z,89.66
2019-04-06T01:28:09.572Z,89.75
2019-04-06T01:30:36.869Z,89.79
2019-04-06T01:33:04.238Z,89.68
2019-04-06T01:35:31.280Z,89.73
2019-04-06T01:37:58.590Z,89.79
2019-04-06T01:40:25.699Z,89.67
2019-04-06T01:42:53.074Z,89.69
2019-04-06T01:45:20.129Z,89.78
2019-04-06T01:47:47.462Z,89.99
2019-04-06T01:50:14.815Z,90.29
2019-04-06T01:52:42.201Z,90.04
2019-04-06T01:55:09.176Z,89.81
2019-04-06T01:57:36.230Z,89.66
2019-04-06T02:00:03.514Z,89.48
2019-04-06T02:02:31.886Z,89.43
2019-04-06T02:05:00.331Z,89.53
2019-04-06T02:07:27.621Z,89.32
2019-04-06T02:09:54.922Z,88.85
2019-04-06T02:12:22.331Z,88.59
2019-04-06T02:14:49.603Z,88.56
2019-04-06T02:17:16.639Z,88.48
2019-04-06T02:19:43.775Z,88.19
2019-04-06T02:22:11.065Z,88.38
2019-04-06T02:24:38.122Z,88.35
2019-04-06T02:27:05.394Z,88.34
2019-04-06T02:29:32.711Z,88.10
2019-04-06T02:31:59.867Z,87.88
2019-04-06T02:34:27.273Z,87.83
2019-04-06T02:36:54.265Z,87.78
2019-04-06T02:39:21.612Z,88.12
2019-04-06T02:41:48.946Z,87.98
2019-04-06T02:44:16.279Z,87.97
2019-04-06T02:46:43.663Z,87.94
2019-04-06T02:49:10.961Z,87.73
2019-04-06T02:51:38.351Z,87.89
2019-04-06T02:54:05.554Z,87.97
2019-04-06T02:56:45.078Z,88.04
2019-04-06T02:59:01.639Z,88.12
2019-04-06T03:01:28.753Z,88.18
2019-04-06T03:03:55.840Z,88.22
2019-04-06T03:06:23.144Z,88.26
2019-04-06T03:08:50.563Z,88.02
2019-04-06T03:11:17.820Z,88.13
2019-04-06T03:13:45.201Z,88.32
2019-04-06T03:16:12.257Z,88.24
2019-04-06T03:18:39.586Z,88.80
2019-04-06T03:21:07.078Z,89.81
2019-04-06T03:23:49.172Z,90.30
2019-04-06T03:26:03.247Z,91.13
2019-04-06T03:28:30.271Z,91.34
2019-04-06T03:30:58.992Z,91.01
2019-04-06T03:33:26.068Z,90.72
2019-04-06T03:35:53.399Z,90.51
2019-04-06T03:38:20.596Z,90.29
2019-04-06T03:40:47.618Z,90.23
2019-04-06T03:43:14.671Z,90.36
2019-04-06T03:45:41.960Z,90.50
2019-04-06T03:48:09.279Z,90.66
2019-04-06T03:50:36.634Z,90.90
2019-04-06T03:53:03.806Z,90.74
2019-04-06T03:55:30.813Z,90.69
2019-04-06T03:57:57.859Z,90.74
2019-04-06T04:00:25.234Z,90.91
2019-04-06T04:02:53.721Z,91.14
2019-04-06T04:05:20.736Z,91.42
2019-04-06T04:07:48.150Z,91.29
2019-04-06T04:10:15.473Z,91.29
2019-04-06T04:12:42.527Z,91.31
2019-04-06T04:15:09.586Z,91.32
2019-04-06T04:17:36.633Z,91.28
2019-04-06T04:20:03.795Z,91.15
2019-04-06T04:22:34.477Z,91.02
2019-04-06T04:25:00.520Z,90.90
2019-04-06T04:27:30.183Z,90.68
2019-04-06T04:29:56.589Z,90.56
2019-04-06T04:32:23.940Z,90.51
2019-04-06T04:34:51.278Z,90.51
2019-04-06T04:37:18.736Z,90.49
2019-04-06T04:39:46.020Z,90.20
2019-04-06T04:42:13.079Z,90.30
2019-04-06T04:44:40.116Z,90.39
2019-04-06T04:47:07.231Z,90.40
2019-04-06T04:49:34.485Z,90.32
2019-04-06T04:52:01.538Z,90.51
2019-04-06T04:54:28.887Z,90.62
2019-04-06T04:56:56.317Z,90.64
2019-04-06T04:59:23.720Z,90.63
2019-04-06T05:01:51.042Z,90.51
2019-04-06T05:04:19.363Z,90.48
2019-04-06T05:06:46.911Z,90.53
2019-04-06T05:09:14.310Z,90.45
2019-04-06T05:11:41.625Z,90.36
2019-04-06T05:14:08.672Z,90.15
2019-04-06T05:16:35.809Z,90.06
2019-04-06T05:19:03.281Z,90.02
2019-04-06T05:21:30.615Z,90.14
2019-04-06T05:23:57.666Z,90.06
2019-04-06T05:26:24.725Z,89.77
2019-04-06T05:28:52.080Z,89.66
2019-04-06T05:31:19.128Z,89.80
2019-04-06T05:33:46.168Z,89.61
2019-04-06T05:36:14.376Z,89.40
2019-04-06T05:38:41.687Z,89.45
2019-04-06T05:41:09.044Z,89.48
2019-04-06T05:43:36.398Z,89.48
2019-04-06T05:46:03.776Z,89.44
2019-04-06T05:48:31.114Z,89.27
2019-04-06T05:50:58.469Z,89.22
2019-04-06T05:53:25.823Z,88.96
2019-04-06T05:55:52.875Z,88.41
2019-04-06T05:58:20.243Z,88.32
2019-04-06T06:00:47.285Z,88.35
2019-04-06T06:03:15.542Z,88.26
2019-04-06T06:05:42.666Z,88.10
2019-04-06T06:08:10.297Z,87.91
2019-04-06T06:10:38.609Z,87.81
2019-04-06T06:13:06.279Z,87.46
2019-04-06T06:15:33.310Z,87.35
2019-04-06T06:18:00.888Z,87.13
2019-04-06T06:20:28.267Z,87.45
2019-04-06T06:22:55.765Z,87.51
2019-04-06T06:25:23.202Z,87.05
2019-04-06T06:27:50.260Z,86.62
2019-04-06T06:30:17.804Z,85.92
2019-04-06T06:32:44.931Z,85.70
2019-04-06T06:35:11.984Z,83.91
2019-04-06T06:37:39.339Z,84.71
2019-04-06T06:40:06.383Z,84.63
2019-04-06T06:42:33.441Z,85.15
2019-04-06T06:45:00.484Z,85.49
2019-04-06T06:47:27.856Z,85.14
2019-04-06T06:49:54.905Z,84.71
2019-04-06T06:52:22.240Z,85.16
2019-04-06T06:54:49.279Z,84.88
2019-04-06T06:57:16.647Z,84.91
2019-04-06T06:59:44.015Z,85.07
2019-04-06T07:02:11.077Z,84.67
2019-04-06T07:04:38.127Z,83.68
2019-04-06T07:07:05.196Z,83.76
2019-04-06T07:09:32.236Z,83.79
2019-04-06T07:11:59.298Z,83.51
2019-04-06T07:14:26.596Z,83.55
2019-04-06T07:16:53.655Z,83.03
2019-04-06T07:19:21.018Z,82.97
2019-04-06T07:21:48.366Z,82.75
2019-04-06T07:24:15.708Z,82.24
2019-04-06T07:26:43.105Z,81.57
2019-04-06T07:29:10.143Z,81.47
2019-04-06T07:31:37.483Z,81.05
2019-04-06T07:34:04.837Z,80.57
2019-04-06T07:36:32.272Z,80.49
2019-04-06T07:38:59.632Z,80.47
2019-04-06T07:41:26.987Z,79.90
2019-04-06T07:43:54.559Z,79.74
2019-04-06T07:46:22.058Z,79.65
2019-04-06T07:48:49.372Z,79.38
2019-04-06T07:51:16.418Z,78.59
2019-04-06T07:53:43.531Z,78.79
2019-04-06T07:56:10.572Z,78.11
2019-04-06T07:58:47.842Z,77.91
2019-04-06T08:01:07.056Z,78.52
2019-04-06T08:03:34.367Z,78.49
2019-04-06T08:06:01.422Z,78.07
2019-04-06T08:08:29.070Z,77.78
2019-04-06T08:10:56.699Z,77.41
2019-04-06T08:13:23.753Z,76.48
2019-04-06T08:15:50.797Z,77.25
2019-04-06T08:18:18.240Z,77.25
2019-04-06T08:20:45.246Z,77.40
2019-04-06T08:23:12.304Z,76.97
2019-04-06T08:25:39.350Z,76.85
2019-04-06T08:28:06.401Z,75.78
2019-04-06T08:30:50.109Z,75.58
2019-04-06T08:33:17.522Z,74.69
2019-04-06T08:35:44.824Z,74.26
2019-04-06T08:38:12.147Z,73.70
2019-04-06T08:40:39.484Z,73.74
2019-04-06T08:43:06.840Z,71.07
2019-04-06T08:45:34.211Z,71.72
2019-04-06T08:48:01.675Z,73.21
2019-04-06T08:50:28.716Z,71.83
2019-04-06T08:52:56.076Z,71.87
2019-04-06T08:55:23.411Z,70.12
2019-04-06T08:57:51.220Z,69.04
2019-04-06T09:00:18.248Z,69.42
2019-04-06T09:02:45.291Z,70.27
2019-04-06T09:05:12.629Z,69.28
2019-04-06T09:07:40.941Z,68.40
2019-04-06T09:10:08.601Z,68.36
2019-04-06T09:12:35.920Z,68.10
2019-04-06T09:15:03.256Z,67.95
2019-04-06T09:17:30.288Z,68.09
2019-04-06T09:19:57.743Z,66.82
2019-04-06T09:22:25.346Z,67.55
2019-04-06T09:24:53.560Z,66.08
2019-04-06T09:27:20.613Z,66.27
2019-04-06T09:29:47.674Z,64.82
2019-04-06T09:32:15.090Z,64.54
2019-04-06T09:34:42.428Z,64.05
2019-04-06T09:37:09.799Z,63.41
2019-04-06T09:39:37.257Z,62.87
2019-04-06T09:42:04.838Z,60.62
2019-04-06T09:44:31.851Z,59.77
2019-04-06T09:47:00.345Z,58.95
2019-04-06T09:49:27.483Z,57.90
2019-04-06T09:51:54.528Z,55.78
2019-04-06T09:54:21.858Z,54.70
2019-04-06T09:56:49.109Z,54.20
2019-04-06T09:59:17.617Z,54.96
2019-04-06T10:01:44.818Z,50.88
2019-04-06T10:04:12.128Z,52.32
2019-04-06T10:06:39.684Z,51.67
2019-04-06T10:09:07.485Z,49.34
2019-04-06T10:11:34.815Z,47.36
2019-04-06T10:14:02.179Z,46.04
2019-04-06T10:16:29.508Z,47.47
2019-04-06T10:18:56.641Z,50.14
2019-04-06T10:21:23.694Z,52.71
2019-04-06T10:23:51.066Z,53.74
2019-04-06T10:26:19.195Z,54.58
2019-04-06T10:28:46.486Z,54.45
2019-04-06T10:31:13.862Z,53.78
2019-04-06T10:33:40.891Z,53.82
2019-04-06T10:36:08.247Z,55.73
2019-04-06T10:38:35.602Z,57.96
2019-04-06T10:41:02.958Z,57.63
2019-04-06T10:43:30.391Z,57.51
2019-04-06T10:45:57.688Z,58.41
2019-04-06T10:48:25.024Z,60.21
2019-04-06T10:50:52.844Z,58.14
2019-04-06T10:53:19.903Z,58.73
2019-04-06T10:55:47.304Z,57.79
2019-04-06T10:58:15.778Z,55.77
2019-04-06T11:00:44.564Z,51.99
2019-04-06T11:03:11.967Z,53.86
2019-04-06T11:05:39.278Z,54.84
2019-04-06T11:08:06.630Z,54.14
2019-04-06T11:10:33.959Z,55.15
2019-04-06T11:13:01.347Z,56.16
2019-04-06T11:15:28.480Z,56.75
2019-04-06T11:17:55.550Z,55.58
2019-04-06T11:20:22.584Z,55.13
2019-04-06T11:22:49.945Z,54.35
2019-04-06T11:25:17.389Z,53.79
2019-04-06T11:27:45.635Z,54.98
2019-04-06T11:30:14.842Z,54.62
2019-04-06T11:32:42.288Z,55.55
2019-04-06T11:35:09.353Z,54.95
2019-04-06T11:37:36.413Z,55.26
2019-04-06T11:40:04.429Z,54.46
2019-04-06T11:42:31.754Z,55.59
2019-04-06T11:44:58.802Z,56.86
2019-04-06T11:47:26.931Z,56.43
2019-04-06T11:49:54.553Z,53.83
2019-04-06T11:52:21.670Z,55.28
2019-04-06T11:54:49.041Z,54.92
2019-04-06T11:57:16.110Z,54.66
2019-04-06T11:59:43.611Z,53.89
2019-04-06T12:02:11.000Z,51.90
2019-04-06T12:04:38.039Z,48.80
2019-04-06T12:07:05.407Z,51.10
2019-04-06T12:09:32.729Z,53.06
2019-04-06T12:12:00.031Z,54.08
2019-04-06T12:14:27.383Z,53.06
2019-04-06T12:16:54.733Z,54.72
2019-04-06T12:19:22.101Z,55.44
2019-04-06T12:21:49.156Z,55.39
2019-04-06T12:24:16.776Z,55.96
2019-04-06T12:26:44.176Z,55.88
2019-04-06T12:29:11.338Z,57.29
2019-04-06T12:31:38.754Z,55.69
2019-04-06T12:34:06.107Z,55.37
2019-04-06T12:36:33.256Z,50.63
2019-04-06T12:39:00.639Z,50.30
2019-04-06T12:41:29.349Z,49.72
2019-04-06T12:43:56.757Z,47.80
2019-04-06T12:46:24.212Z,48.17
2019-04-06T12:48:52.740Z,50.10
2019-04-06T12:51:20.497Z,49.90
2019-04-06T12:53:48.835Z,48.03
2019-04-06T12:56:16.302Z,48.63
2019-04-06T12:58:43.422Z,49.14
2019-04-06T13:01:10.930Z,50.33
2019-04-06T13:03:38.191Z,51.91
2019-04-06T13:06:05.633Z,50.10
2019-04-06T13:08:32.969Z,49.42
2019-04-06T13:11:00.326Z,49.04
2019-04-06T13:13:27.696Z,49.04
2019-04-06T13:15:54.757Z,48.55
2019-04-06T13:18:21.804Z,48.95
2019-04-06T13:20:48.848Z,44.96
2019-04-06T13:23:16.182Z,45.01
2019-04-06T13:25:43.531Z,46.71
2019-04-06T13:28:10.802Z,46.21
2019-04-06T13:30:38.517Z,48.77
2019-04-06T13:33:05.876Z,47.34
2019-04-06T13:35:32.905Z,46.16
2019-04-06T13:38:00.515Z,47.97
2019-04-06T13:40:28.810Z,49.88
2019-04-06T13:42:56.145Z,48.76
2019-04-06T13:45:23.500Z,49.60
2019-04-06T13:47:51.586Z,49.48
2019-04-06T13:50:18.951Z,49.73
2019-04-06T13:52:46.010Z,48.46
2019-04-06T13:55:13.297Z,47.73
2019-04-06T13:57:40.683Z,47.85
2019-04-06T14:00:08.041Z,48.88
2019-04-06T14:02:35.275Z,50.68
2019-04-06T14:05:02.874Z,50.32
2019-04-06T14:07:29.877Z,49.23
2019-04-06T14:09:57.260Z,48.81
2019-04-06T14:12:24.388Z,49.50
2019-04-06T14:14:51.766Z,48.32
2019-04-06T14:17:19.117Z,49.74
2019-04-06T14:19:46.471Z,50.13
2019-04-06T14:22:13.832Z,50.66
2019-04-06T14:24:41.201Z,51.46
2019-04-06T14:27:08.662Z,50.63
2019-04-06T14:29:36.048Z,51.77
2019-04-06T14:32:03.900Z,49.73
2019-04-06T14:34:31.008Z,50.60
2019-04-06T14:36:58.306Z,50.56
2019-04-06T14:39:25.459Z,50.04
2019-04-06T14:41:53.307Z,51.18
2019-04-06T14:44:20.612Z,51.53
2019-04-06T14:46:48.131Z,51.50
2019-04-06T14:49:28.859Z,50.45
2019-04-06T14:51:43.928Z,51.38
2019-04-06T14:54:11.542Z,51.87
2019-04-06T14:56:38.951Z,51.17
2019-04-06T14:59:06.016Z,51.87
2019-04-06T15:01:41.189Z,49.70
2019-04-06T15:04:02.469Z,50.17
2019-04-06T15:06:29.511Z,49.86
2019-04-06T15:08:56.852Z,50.28
2019-04-06T15:11:24.182Z,49.44
2019-04-06T15:13:51.700Z,49.67
2019-04-06T15:16:19.125Z,48.95
2019-04-06T15:18:46.377Z,50.40
2019-04-06T15:21:13.487Z,50.63
2019-04-06T15:23:41.005Z,49.60
2019-04-06T15:26:08.456Z,50.44
2019-04-06T15:28:35.505Z,48.86
2019-04-06T15:31:02.638Z,49.68
2019-04-06T15:33:29.995Z,51.59
2019-04-06T15:35:57.349Z,50.69
2019-04-06T15:38:24.644Z,50.46
2019-04-06T15:40:51.862Z,50.42
2019-04-06T15:43:19.793Z,50.07
2019-04-06T15:45:47.177Z,50.34
2019-04-06T15:48:14.533Z,50.60
2019-04-06T15:50:41.886Z,50.29
2019-04-06T15:53:08.939Z,50.41
2019-04-06T15:55:36.084Z,50.38
2019-04-06T15:58:03.130Z,51.50
2019-04-06T16:00:30.594Z,50.46
2019-04-06T16:02:57.849Z,51.43
2019-04-06T16:05:24.866Z,51.02
2019-04-06T16:07:51.924Z,50.91
2019-04-06T16:10:18.988Z,51.46
2019-04-06T16:12:47.109Z,51.65
2019-04-06T16:15:14.182Z,50.68
2019-04-06T16:17:41.565Z,51.82
2019-04-06T16:20:09.729Z,51.99
2019-04-06T16:22:37.246Z,51.09
2019-04-06T16:25:04.627Z,50.58
2019-04-06T16:27:31.932Z,51.78
2019-04-06T16:29:59.280Z,51.49
2019-04-06T16:32:32.424Z,52.83
2019-04-06T16:34:55.409Z,50.71
2019-04-06T16:37:22.765Z,51.41
2019-04-06T16:39:50.115Z,51.76
2019-04-06T16:42:17.176Z,51.37
2019-04-06T16:44:44.228Z,52.35
2019-04-06T16:47:11.569Z,52.87
2019-04-06T16:49:38.925Z,52.91
2019-04-06T16:52:05.999Z,53.29
2019-04-06T16:54:33.325Z,53.47
2019-04-06T16:57:00.683Z,53.49
2019-04-06T16:59:27.808Z,53.65
2019-04-06T17:01:54.927Z,53.92
2019-04-06T17:04:22.356Z,54.48
2019-04-06T17:06:49.852Z,55.18
2019-04-06T17:09:17.054Z,54.95
2019-04-06T17:11:44.379Z,54.62
2019-04-06T17:14:11.681Z,55.46
2019-04-06T17:16:39.007Z,55.54
2019-04-06T17:19:20.633Z,56.12
2019-04-06T17:21:48.260Z,56.23
2019-04-06T17:24:16.761Z,56.77
2019-04-06T17:26:44.543Z,56.92
2019-04-06T17:29:13.835Z,57.09
2019-04-06T17:31:43.995Z,57.48
2019-04-06T17:34:10.895Z,57.60
2019-04-06T17:36:41.967Z,57.89
2019-04-06T17:39:16.819Z,58.11
2019-04-06T17:41:44.422Z,58.63
2019-04-06T17:44:18.551Z,58.25
2019-04-06T17:46:46.233Z,58.31
2019-04-06T17:49:29.615Z,58.63
2019-04-06T17:54:33.508Z,59.14
2019-04-06T17:57:00.838Z,59.40
2019-04-06T17:59:31.283Z,60.05
2019-04-06T18:07:25.421Z,61.84
2019-04-06T18:09:56.666Z,62.30
2019-04-06T18:12:24.649Z,62.84
2019-04-06T18:14:52.975Z,63.51
2019-04-06T18:17:20.230Z,64.24
2019-04-06T18:19:57.282Z,64.30
2019-04-06T18:22:26.776Z,64.50
2019-04-06T18:25:04.172Z,64.33
2019-04-06T18:27:34.440Z,64.28
2019-04-06T18:30:01.669Z,64.06
2019-04-06T18:32:34.812Z,64.08
2019-04-06T18:35:05.086Z,63.62
2019-04-06T18:37:33.639Z,63.69
2019-04-06T18:40:01.845Z,63.39
2019-04-06T18:42:29.682Z,63.50
2019-04-06T18:44:57.340Z,63.65
2019-04-06T18:47:24.527Z,63.75
2019-04-06T18:49:52.379Z,64.03
2019-04-06T18:52:20.229Z,64.33
2019-04-06T18:57:32.362Z,64.66
2019-04-06T19:00:00.828Z,64.73
2019-04-06T19:02:28.475Z,64.70
2019-04-06T19:04:55.843Z,64.86
2019-04-06T19:07:25.071Z,64.96
2019-04-06T19:09:52.339Z,64.72
2019-04-06T19:12:19.974Z,64.71
2019-04-06T19:19:53.838Z,64.08
2019-04-06T19:22:22.110Z,64.37
2019-04-06T19:24:51.320Z,64.66
2019-04-06T19:27:18.559Z,64.92
2019-04-06T19:29:49.365Z,65.12
2019-04-06T19:32:33.133Z,65.33
2019-04-06T19:42:57.341Z,65.45
2019-04-06T19:45:24.963Z,65.05
2019-04-06T19:47:54.131Z,64.44
2019-04-06T19:50:23.345Z,64.05
2019-04-06T19:52:57.921Z,64.22
2019-04-06T19:55:25.553Z,64.75
2019-04-06T19:57:57.216Z,65.47
2019-04-06T20:02:59.478Z,66.40
2019-04-06T20:05:29.672Z,66.66
2019-04-06T20:07:57.853Z,66.91
2019-04-06T20:10:25.139Z,67.07
2019-04-06T20:12:52.427Z,67.44
2019-04-06T20:15:24.407Z,67.62
2019-04-06T20:17:54.017Z,67.87
2019-04-06T20:25:38.135Z,69.53
2019-04-06T20:30:58.083Z,71.43
2019-04-06T20:33:30.502Z,72.51
2019-04-06T20:35:57.744Z,73.13
2019-04-06T20:38:26.157Z,72.99
2019-04-06T20:40:53.877Z,72.18
2019-04-06T20:43:22.064Z,71.47
2019-04-06T20:45:49.335Z,71.09
2019-04-06T20:48:25.748Z,70.89
2019-04-06T20:50:52.813Z,70.91
2019-04-06T20:53:22.643Z,70.93
2019-04-06T20:58:26.887Z,71.25
2019-04-06T21:00:54.519Z,71.31
2019-04-06T21:03:23.298Z,70.88
2019-04-06T21:05:52.822Z,70.55
2019-04-06T21:08:27.195Z,70.46
2019-04-06T21:10:58.013Z,70.58
2019-04-06T21:13:25.435Z,70.58
2019-04-06T21:15:53.636Z,71.29
2019-04-06T21:18:24.372Z,72.75
2019-04-06T21:28:58.339Z,73.84
2019-04-06T21:31:25.561Z,73.88
2019-04-06T21:36:38.005Z,73.85
2019-04-06T21:47:16.744Z,72.87
2019-04-06T21:49:45.988Z,72.18
2019-04-06T21:52:13.026Z,71.99
2019-04-06T21:54:40.973Z,72.26
2019-04-06T21:57:20.030Z,72.45
2019-04-06T21:59:47.345Z,72.92
2019-04-06T22:02:14.811Z,73.04
2019-04-06T22:04:41.936Z,73.54
2019-04-06T22:07:09.831Z,73.87
2019-04-06T22:09:37.007Z,74.32
2019-04-06T22:12:04.051Z,74.83
2019-04-06T22:14:31.641Z,75.08
2019-04-06T22:16:59.312Z,75.36
2019-04-06T22:19:27.782Z,75.20
2019-04-06T22:21:55.409Z,75.03
2019-04-06T22:24:22.509Z,74.76
2019-04-06T22:26:49.683Z,73.46
2019-04-06T22:29:17.344Z,72.58
2019-04-06T22:31:44.922Z,71.92
2019-04-06T22:34:12.571Z,71.67
2019-04-06T22:36:40.182Z,72.13
2019-04-06T22:39:07.478Z,73.21
2019-04-06T22:41:35.405Z,73.96
2019-04-06T22:44:03.022Z,74.19
2019-04-06T22:46:31.570Z,72.20
2019-04-06T22:48:58.967Z,71.17
2019-04-06T22:51:26.502Z,70.17
2019-04-06T22:53:53.537Z,69.71
2019-04-06T22:56:21.429Z,68.76
2019-04-06T22:58:49.343Z,68.33
2019-04-06T23:01:16.656Z,67.81
2019-04-06T23:03:45.013Z,66.50
2019-04-06T23:06:12.306Z,65.99
2019-04-06T23:08:39.618Z,65.23
2019-04-06T23:11:06.937Z,66.77
2019-04-06T23:13:34.533Z,70.04
2019-04-06T23:16:02.091Z,72.14
2019-04-06T23:18:29.368Z,72.81
2019-04-06T23:20:56.567Z,70.79
2019-04-06T23:23:23.624Z,69.88
2019-04-06T23:25:50.922Z,70.34
2019-04-06T23:28:18.210Z,69.59
2019-04-06T23:30:45.351Z,68.11
2019-04-06T23:33:12.378Z,65.95
2019-04-06T23:35:39.705Z,65.26
2019-04-06T23:38:07.465Z,64.23
2019-04-06T23:40:34.836Z,63.24
2019-04-06T23:43:02.116Z,63.53
2019-04-06T23:45:30.001Z,64.18
2019-04-06T23:47:57.293Z,64.28
2019-04-06T23:50:24.591Z,67.02
2019-04-06T23:52:51.637Z,70.57
2019-04-06T23:55:18.979Z,73.37
2019-04-06T23:57:46.562Z,74.72
